Terminal Aerodrome Forecast
Issued by NWS Corpus Christi, TX

Home | Current Version | Previous Version | Text Only | Print | Product List | Glossary On
Versions: 1 2 3 4 5 6 7 8 9 10 11 12 13 14 15 16 17 18 19 20 21 22
374
FTUS44 KCRP 290532
TAFCRP
TAF
KCRP 290532Z 2906/3006 13010KT P6SM SCT020 BKN250
      TEMPO 2906/2908 BKN020
     FM290800 14008KT P6SM BKN015
     FM291500 14015G20KT P6SM BKN025
     FM292000 12018G25KT P6SM SCT035 BKN250
     FM300200 14015KT P6SM SCT020=

USA.gov is the U.S. government's official web portal to all federal, state and local government web resources and services.